createdAt,value
2023-04-29T00:01:00.017Z,1.71
2023-04-29T00:03:10.857Z,1.72
2023-04-29T00:05:43.308Z,1.68
2023-04-29T00:07:58.151Z,1.65
2023-04-29T00:10:10.580Z,1.63
2023-04-29T00:12:23.459Z,1.61
2023-04-29T00:14:34.342Z,1.59
2023-04-29T00:16:48.822Z,1.56
2023-04-29T00:18:59.480Z,1.55
2023-04-29T00:21:11.960Z,1.53
2023-04-29T00:23:23.940Z,1.57
2023-04-29T00:25:36.028Z,1.6
2023-04-29T00:30:11.897Z,1.64
2023-04-29T00:32:24.307Z,1.64
2023-04-29T00:34:42.380Z,1.65
2023-04-29T00:36:55.005Z,1.61
2023-04-29T00:39:07.059Z,1.6
2023-04-29T00:41:22.027Z,1.54
2023-04-29T00:43:34.759Z,1.48
2023-04-29T00:45:46.075Z,1.45
2023-04-29T00:47:58.169Z,1.47
2023-04-29T00:50:11.957Z,1.52
2023-04-29T00:52:22.882Z,1.5
2023-04-29T00:54:38.519Z,1.49
2023-04-29T00:56:52.036Z,1.51
2023-04-29T00:59:05.381Z,1.53
2023-04-29T01:01:19.282Z,1.55
2023-04-29T01:03:31.007Z,1.6
2023-04-29T01:05:43.661Z,1.63
2023-04-29T01:07:54.583Z,1.65
2023-04-29T01:10:04.900Z,1.7
2023-04-29T01:12:16.500Z,1.75
2023-04-29T01:14:30.825Z,1.8
2023-04-29T01:16:42.165Z,1.83
2023-04-29T01:18:54.541Z,1.86
2023-04-29T01:21:12.064Z,1.91
2023-04-29T01:23:23.241Z,1.98
2023-04-29T01:25:34.615Z,2.03
2023-04-29T01:27:46.295Z,2.06
2023-04-29T01:29:58.517Z,2.09
2023-04-29T01:32:09.616Z,2.13
2023-04-29T01:34:20.080Z,2.17
2023-04-29T01:36:32.397Z,2.21
2023-04-29T01:38:43.960Z,2.26
2023-04-29T01:40:56.457Z,2.31
2023-04-29T01:43:11.297Z,2.32
2023-04-29T01:45:22.663Z,2.39
2023-04-29T01:47:33.141Z,2.44
2023-04-29T01:49:43.301Z,2.49
2023-04-29T01:51:53.620Z,2.5
2023-04-29T01:54:04.448Z,2.51
2023-04-29T01:56:15.538Z,2.53
2023-04-29T01:58:26.550Z,2.55
2023-04-29T02:00:37.308Z,2.57
2023-04-29T02:02:48.091Z,2.58
2023-04-29T02:04:59.109Z,2.6
2023-04-29T02:07:11.083Z,2.66
2023-04-29T02:09:25.302Z,2.69
2023-04-29T02:11:36.636Z,2.71
2023-04-29T02:13:47.546Z,2.73
2023-04-29T02:15:59.089Z,2.77
2023-04-29T02:18:10.310Z,2.77
2023-04-29T02:20:23.841Z,2.8
2023-04-29T02:22:34.323Z,2.82
2023-04-29T02:24:46.728Z,2.82
2023-04-29T02:26:58.545Z,2.84
2023-04-29T02:29:17.732Z,2.83
2023-04-29T02:31:32.102Z,2.86
2023-04-29T02:33:44.625Z,2.87
2023-04-29T02:35:56.756Z,2.87
2023-04-29T02:38:11.379Z,2.88
2023-04-29T02:40:23.795Z,2.89
2023-04-29T02:42:36.220Z,2.93
2023-04-29T02:44:47.840Z,2.96
2023-04-29T02:47:00.342Z,2.97
2023-04-29T02:49:11.185Z,2.95
2023-04-29T02:51:22.684Z,2.96
2023-04-29T02:53:33.222Z,2.96
2023-04-29T02:55:44.683Z,2.97
2023-04-29T02:57:56.901Z,3.01
2023-04-29T03:00:08.969Z,3.09
2023-04-29T03:02:20.317Z,3.12
2023-04-29T03:04:32.464Z,3.13
2023-04-29T03:06:43.462Z,3.14
2023-04-29T03:08:54.095Z,3.13
2023-04-29T03:11:05.467Z,3.12
2023-04-29T03:13:18.430Z,3.12
2023-04-29T03:15:30.862Z,3.1
2023-04-29T03:17:41.674Z,3.08
2023-04-29T03:19:55.721Z,3.07
2023-04-29T03:22:07.232Z,3.05
2023-04-29T03:24:22.899Z,3.07
2023-04-29T03:26:36.465Z,3.07
2023-04-29T03:28:50.332Z,3.08
2023-04-29T03:31:04.910Z,3.06
2023-04-29T03:33:18.197Z,3.09
2023-04-29T03:35:30.162Z,3.11
2023-04-29T03:37:53.058Z,3.15
2023-04-29T03:40:07.380Z,3.18
2023-04-29T03:42:20.463Z,3.2
2023-04-29T03:44:31.745Z,3.22
2023-04-29T03:46:44.715Z,3.29
2023-04-29T03:48:57.616Z,3.31
2023-04-29T03:51:07.874Z,3.36
2023-04-29T03:53:19.898Z,3.41
2023-04-29T03:55:31.139Z,3.46
2023-04-29T03:57:42.698Z,3.5
2023-04-29T03:59:53.855Z,3.6
2023-04-29T04:02:07.770Z,3.68
2023-04-29T04:04:22.563Z,3.73
2023-04-29T04:06:37.499Z,3.82
2023-04-29T04:08:53.355Z,3.9
2023-04-29T04:11:05.875Z,3.98
2023-04-29T04:13:18.056Z,4.04
2023-04-29T04:15:32.458Z,4.13
2023-04-29T04:17:49.411Z,4.21
2023-04-29T04:23:15.515Z,4.48
2023-04-29T04:25:29.704Z,4.58
2023-04-29T04:27:45.625Z,4.69
2023-04-29T04:30:04.204Z,4.88
2023-04-29T04:32:19.375Z,5.04
2023-04-29T04:34:39.988Z,5.19
2023-04-29T04:36:52.465Z,5.3
2023-04-29T04:39:08.567Z,5.43
2023-04-29T04:41:21.789Z,5.59
2023-04-29T04:43:34.364Z,5.72
2023-04-29T04:45:46.294Z,5.83
2023-04-29T04:47:59.228Z,5.94
2023-04-29T04:50:11.308Z,6.11
2023-04-29T04:52:24.028Z,6.28
2023-04-29T04:54:36.251Z,6.49
2023-04-29T04:56:49.045Z,6.6
2023-04-29T04:59:00.792Z,6.75
2023-04-29T05:01:12.241Z,6.83
2023-04-29T05:03:23.606Z,6.98
2023-04-29T05:05:36.383Z,7.09
2023-04-29T05:08:03.352Z,7.13
2023-04-29T05:10:17.045Z,7.18
2023-04-29T05:12:35.646Z,7.35
2023-04-29T05:14:47.706Z,7.42
2023-04-29T05:17:01.071Z,7.49
2023-04-29T05:19:14.844Z,7.52
2023-04-29T05:21:29.484Z,7.53
2023-04-29T05:23:40.082Z,7.66
2023-04-29T05:25:51.676Z,7.72
2023-04-29T05:28:04.483Z,8
2023-04-29T05:30:27.428Z,8.01
2023-04-29T05:32:47.519Z,7.98
2023-04-29T05:34:59.887Z,7.94
2023-04-29T05:37:13.942Z,8
2023-04-29T05:39:26.614Z,8.23
2023-04-29T05:41:45.162Z,8.27
2023-04-29T05:43:56.622Z,8.69
2023-04-29T05:46:08.415Z,9.01
2023-04-29T05:48:23.531Z,8.95
2023-04-29T05:50:42.929Z,8.81
2023-04-29T05:52:55.072Z,9.07
2023-04-29T05:55:12.150Z,9.17
2023-04-29T05:57:23.784Z,9.09
2023-04-29T05:59:37.088Z,9.14
2023-04-29T06:01:53.947Z,9.22
2023-04-29T06:04:05.772Z,9.23
2023-04-29T06:06:17.137Z,9.28
2023-04-29T06:08:28.127Z,9.32
2023-04-29T06:10:41.002Z,9.31
2023-04-29T06:12:52.309Z,9.37
2023-04-29T06:15:03.524Z,9.41
2023-04-29T06:17:17.868Z,9.55
2023-04-29T06:19:29.632Z,9.81
2023-04-29T06:21:46.906Z,9.96
2023-04-29T06:24:00.913Z,10.11
2023-04-29T06:26:14.569Z,10.18
2023-04-29T06:28:30.091Z,10.21
2023-04-29T06:30:56.308Z,10.39
2023-04-29T06:33:12.179Z,10.48
2023-04-29T06:35:23.367Z,10.49
2023-04-29T06:37:37.103Z,10.51
2023-04-29T06:39:50.060Z,10.65
2023-04-29T06:42:12.308Z,10.9
2023-04-29T12:20:41.264Z,19.97
2023-04-29T13:28:18.022Z,20.46
2023-04-29T13:30:33.538Z,20.46
2023-04-29T13:32:54.600Z,21.47
2023-04-29T13:35:27.204Z,22.03
2023-04-29T13:37:54.340Z,21.49
2023-04-29T13:40:44.742Z,20.61
2023-04-29T13:43:35.812Z,19.72
2023-04-29T13:46:02.464Z,20.06
2023-04-29T13:48:41.644Z,19.76
2023-04-29T14:01:11.065Z,19.49
2023-04-29T14:04:19.781Z,19.23
2023-04-29T14:07:21.162Z,18.48
2023-04-29T14:23:15.648Z,18.35
2023-04-29T14:25:53.598Z,18.4
2023-04-29T14:28:45.672Z,18.48
2023-04-29T14:31:03.911Z,18.69
2023-04-29T14:33:28.036Z,18.76
2023-04-29T14:35:54.404Z,18.59
2023-04-29T14:38:28.908Z,18.68
2023-04-29T14:41:05.264Z,18.55
2023-04-29T14:43:30.814Z,18.69
2023-04-29T14:45:49.047Z,18.6
2023-04-29T14:48:08.741Z,18.57
2023-04-29T14:50:26.045Z,18.6
2023-04-29T14:52:46.751Z,18.67
2023-04-29T14:55:31.704Z,19.01
2023-04-29T14:58:05.057Z,18.83
2023-04-29T15:00:27.309Z,18.79
2023-04-29T15:02:47.027Z,18.73
2023-04-29T15:08:29.886Z,18.67
2023-04-29T15:11:20.308Z,18.52
2023-04-29T15:13:53.620Z,18.49
2023-04-29T15:16:44.010Z,18.42
2023-04-29T15:19:58.432Z,18.35
2023-04-29T15:22:35.971Z,18.53
2023-04-29T15:25:02.425Z,18.45
2023-04-29T15:27:34.133Z,18.73
2023-04-29T15:29:48.226Z,18.71
2023-04-29T15:32:03.247Z,18.43
2023-04-29T15:34:26.168Z,18.46
2023-04-29T15:37:00.471Z,18.46
2023-04-29T15:39:16.811Z,18.37
2023-04-29T15:41:45.042Z,18.04
2023-04-29T15:44:04.768Z,17.92
2023-04-29T15:46:34.432Z,17.77
2023-04-29T15:49:17.565Z,17.69
2023-04-29T15:51:57.384Z,17.58
2023-04-29T15:54:36.283Z,17.44
2023-04-29T15:57:25.936Z,17.35
2023-04-29T16:00:01.179Z,17.26
2023-04-29T16:02:25.726Z,17.22
2023-04-29T16:05:32.796Z,17.2
2023-04-29T16:08:01.926Z,17.16
2023-04-29T16:55:04.638Z,16
2023-04-29T16:57:59.533Z,15.86
2023-04-29T17:00:14.272Z,15.7
2023-04-29T17:05:47.759Z,15.46
2023-04-29T17:08:05.735Z,15.47
2023-04-29T17:10:22.226Z,15.35
2023-04-29T17:18:08.955Z,15.19
2023-04-29T17:20:26.695Z,15.14
2023-04-29T17:22:45.464Z,15.08
2023-04-29T17:25:06.136Z,15.01
2023-04-29T17:27:27.674Z,14.99
2023-04-29T17:29:44.194Z,14.95
2023-04-29T17:32:03.209Z,14.91
2023-04-29T17:34:28.537Z,14.88
2023-04-29T17:36:49.552Z,14.83
2023-04-29T17:39:15.260Z,14.79
2023-04-29T17:41:36.935Z,14.72
2023-04-29T17:44:09.500Z,14.66
2023-04-29T17:46:40.020Z,14.57
2023-04-29T17:49:00.879Z,14.51
2023-04-29T17:51:29.473Z,14.45
2023-04-29T17:53:53.340Z,14.38
2023-04-29T17:56:10.569Z,14.25
2023-04-29T17:58:23.017Z,14.13
2023-04-29T18:00:36.278Z,14.1
2023-04-29T18:02:58.285Z,14.04
2023-04-29T18:05:11.316Z,13.91
2023-04-29T18:07:34.829Z,13.89
2023-04-29T18:09:48.398Z,13.83
2023-04-29T18:12:13.104Z,13.79
2023-04-29T18:14:42.081Z,13.71
2023-04-29T18:17:01.903Z,13.61
2023-04-29T18:19:18.998Z,13.52
2023-04-29T18:21:56.059Z,13.41
2023-04-29T18:24:12.998Z,13.3
2023-04-29T18:26:39.096Z,13.2
2023-04-29T18:28:57.210Z,13.08
2023-04-29T18:31:17.593Z,13.03
2023-04-29T18:33:32.778Z,12.99
2023-04-29T18:35:49.157Z,12.93
2023-04-29T18:38:08.656Z,12.86
2023-04-29T18:40:31.176Z,12.78
2023-04-29T18:42:49.318Z,12.7
2023-04-29T18:45:10.041Z,12.65
2023-04-29T18:47:26.401Z,12.62
2023-04-29T18:49:43.257Z,12.62
2023-04-29T18:52:08.157Z,12.58
2023-04-29T18:54:21.558Z,12.56
2023-04-29T18:56:40.140Z,12.53
2023-04-29T18:58:57.368Z,12.47
2023-04-29T19:01:13.363Z,12.43
2023-04-29T19:03:27.581Z,12.37
2023-04-29T19:05:55.183Z,12.34
2023-04-29T19:08:08.776Z,12.29
2023-04-29T19:10:40.995Z,12.26
2023-04-29T19:13:06.859Z,12.2
2023-04-29T19:15:32.438Z,12.2
2023-04-29T19:17:49.028Z,12.16
2023-04-29T19:20:10.654Z,12.16
2023-04-29T19:22:49.095Z,12.12
2023-04-29T19:25:21.687Z,12.05
2023-04-29T19:27:46.276Z,11.99
2023-04-29T19:30:03.774Z,11.93
2023-04-29T19:32:37.722Z,11.92
2023-04-29T19:35:11.275Z,11.91
2023-04-29T19:37:39.989Z,11.88
2023-04-29T19:40:11.336Z,11.82
2023-04-29T19:42:28.338Z,11.79
2023-04-29T19:44:48.437Z,11.78
2023-04-29T19:47:19.559Z,11.75
2023-04-29T19:49:56.576Z,11.72
2023-04-29T19:52:26.824Z,11.66
2023-04-29T19:54:51.079Z,11.57
2023-04-29T19:57:18.519Z,11.61
2023-04-29T19:59:38.018Z,11.57
2023-04-29T20:01:54.109Z,11.5
2023-04-29T20:04:23.920Z,11.45
2023-04-29T20:07:11.974Z,11.37
2023-04-29T20:29:50.536Z,10.98
2023-04-29T20:39:26.595Z,10.9
2023-04-29T20:42:29.480Z,10.89
2023-04-29T20:53:17.970Z,10.73
2023-04-29T22:03:36.120Z,10.34
2023-04-29T22:32:20.569Z,10.42
2023-04-29T22:34:37.578Z,10.45
